Malaga, WA (98828)

7:47 PM PDT on July 25, 2016 (GMT -0700)
Malaga Heights | | Change Station

Elev 1512 ft 47.35 °N, 120.20 °W | Updated 1 second ago

Clear
Clear
91.2 °F
Feels Like 87 °F
N
10.5
Wind Variable Wind from NE
Gusts 12.3 mph

Today
High -- | Low -- °F
--% Chance of Precip.
Yesterday
High -- | Low -- °F
Precip. -- in
Pressure 29.83 in
Visibility 10.0 miles
Clouds Clear
Heat Index 87 °F
Dew Point 45 °F
Humidity 20%
Rainfall 0.00 in
Snow Depth Not available.
5:31 AM 8:42 PM
Waning Gibbous, 60% visible
METAR KEAT 260155Z AUTO 11004KT 10SM CLR 32/11 A2987 RMK AO2 SLP102 T03220111
Pressure 29.83 in
Visibility 10.0 miles
Clouds Clear
Heat Index 87 °F
Dew Point 45 °F
Humidity 20%
Rainfall 0.00 in
Snow Depth Not available.
5:31 AM 8:42 PM
Waning Gibbous, 60% visible
METAR KEAT 260155Z AUTO 11004KT 10SM CLR 32/11 A2987 RMK AO2 SLP102 T03220111

10-Day Weather Forecast

Almanac

Astronomy

Jul. 25, 2016 Rise Set
Actual Time
Civil Twilight
Nautical Twilight
Astronomical Twilight
Moon
Length of Visible Light
Length of Day
Tomorrow will be .
, % of the Moon is Illuminated

Today's Extremes

State Highs State Lows

Community

WunderPhotos

Upload Photos

1,927,505 photos uploaded!

WunderBlog® & News

Nearby

Air Quality

  Air Quality AQ Index Pollutant
Not available.

Snow Depth

Station Depth Elevation

Earthquake Activity

City Distance Mag. Time & Date
Minimum magnitude displayed is 2.5.

Coastal Water Temperatures

Place Temperature

Stations

Nearby Weather Stations

Station Location Temp. Windchill Dew Point Humidity Wind Precip. Elev Updated Type
                   

Watches & Warnings

There are currently no watches in effect.